Time;durP1;ratioP1;P1;durP2;ratioP2;P2;SDS_P1;SDS_P2;PMS_P1;PMS_P2;Temp;Humidity;BMP_temperature;BMP_pressure;BME280_temperature;BME280_humidity;BME280_pressure;Samples;Min_cycle;Max_cycle;Signal;HPM_P1;HPM_P2
2022/08/28 00:01:06;;;;;;;4.13;2.30;;;19.00;99.90;;;;;;5094504;28;20209;-73
2022/08/28 00:03:33;;;;;;;14.00;3.37;;;19.00;99.90;;;;;;5095635;28;20194;-77
2022/08/28 00:06:00;;;;;;;10.50;2.47;;;19.00;99.90;;;;;;5095576;28;20174;-76
2022/08/28 00:08:26;;;;;;;6.57;2.90;;;19.00;99.90;;;;;;5095482;28;20234;-74
2022/08/28 00:10:52;;;;;;;7.70;2.70;;;18.90;99.90;;;;;;5095980;28;20170;-73
2022/08/28 00:13:20;;;;;;;5.80;2.40;;;19.00;99.90;;;;;;5099496;28;20183;-68
2022/08/28 00:15:49;;;;;;;5.83;2.17;;;18.90;99.90;;;;;;5099164;28;20167;-70
2022/08/28 00:18:15;;;;;;;7.17;2.03;;;18.90;99.90;;;;;;5099180;28;20183;-68
2022/08/28 00:20:41;;;;;;;6.73;2.03;;;18.80;99.90;;;;;;5099219;28;20181;-67
2022/08/28 00:23:07;;;;;;;3.77;2.17;;;18.90;99.90;;;;;;5099231;28;20167;-67
2022/08/28 00:25:36;;;;;;;6.70;2.30;;;18.80;99.90;;;;;;5098758;28;20582;-72
2022/08/28 00:28:06;;;;;;;3.33;2.23;;;18.70;99.90;;;;;;5098858;28;20281;-75
2022/08/28 00:30:46;;;;;;;5.67;2.07;;;18.80;99.90;;;;;;5097989;28;20555;-70
2022/08/28 00:33:29;;;;;;;6.50;2.70;;;18.90;99.90;;;;;;5098127;28;20558;-67
2022/08/28 00:35:56;;;;;;;5.00;2.53;;;18.80;99.90;;;;;;5098791;28;20166;-69
2022/08/28 00:38:25;;;;;;;3.90;1.80;;;18.70;99.90;;;;;;5098893;28;20609;-68
2022/08/28 00:40:54;;;;;;;3.83;2.00;;;18.70;99.90;;;;;;5098659;28;20258;-69
2022/08/28 00:43:42;;;;;;;16.27;4.27;;;18.70;99.90;;;;;;5097591;28;20178;-69
2022/08/28 00:46:20;;;;;;;4.00;1.97;;;18.70;99.90;;;;;;5098759;28;20174;-74
2022/08/28 00:48:46;;;;;;;4.03;2.17;;;18.70;99.90;;;;;;5098522;28;20202;-71
2022/08/28 00:53:59;;;;;;;3.87;1.67;;;18.60;99.90;;;;;;5098917;28;20470;-69
2022/08/28 00:56:27;;;;;;;6.23;2.03;;;18.60;99.90;;;;;;5098122;28;20584;-78
2022/08/28 00:58:57;;;;;;;5.20;2.13;;;18.60;99.90;;;;;;5098255;28;20182;-73
2022/08/28 01:01:23;;;;;;;5.40;2.10;;;18.60;99.90;;;;;;5098574;28;20717;-70
2022/08/28 01:03:49;;;;;;;4.60;2.53;;;18.50;99.90;;;;;;5098392;28;20171;-72
2022/08/28 01:06:19;;;;;;;2.57;2.37;;;18.40;99.90;;;;;;5098448;28;20231;-74
2022/08/28 01:08:46;;;;;;;6.20;2.30;;;18.40;99.90;;;;;;5097953;28;20598;-69
2022/08/28 01:11:13;;;;;;;5.63;2.07;;;18.40;99.90;;;;;;5098256;28;20197;-74
2022/08/28 01:13:42;;;;;;;5.40;2.17;;;18.30;99.90;;;;;;5098177;28;20173;-74
2022/08/28 01:16:09;;;;;;;3.83;1.40;;;18.20;99.90;;;;;;5098307;28;20170;-72
2022/08/28 01:18:35;;;;;;;7.33;2.57;;;18.10;99.90;;;;;;5098056;28;20555;-71
2022/08/28 01:21:25;;;;;;;6.93;2.03;;;18.10;99.90;;;;;;5098493;28;20174;-70
2022/08/28 01:24:08;;;;;;;3.97;1.40;;;18.00;99.90;;;;;;5096620;28;20171;-77
2022/08/28 01:26:34;;;;;;;6.70;2.33;;;18.00;99.90;;;;;;5098170;28;20163;-72
2022/08/28 01:29:00;;;;;;;1.93;1.20;;;18.00;99.90;;;;;;5096795;28;20220;-76
2022/08/28 01:31:28;;;;;;;5.73;2.87;;;18.00;99.90;;;;;;5097898;28;20171;-69
2022/08/28 01:33:55;;;;;;;4.53;1.63;;;17.60;99.90;;;;;;5097769;28;20171;-71
2022/08/28 01:36:20;;;;;;;2.20;1.60;;;17.00;99.90;;;;;;5097778;28;20692;-69
2022/08/28 01:38:51;;;;;;;8.67;2.50;;;16.50;99.90;;;;;;5097592;28;20246;-73
2022/08/28 01:41:18;;;;;;;3.03;1.57;;;16.30;99.90;;;;;;5097863;28;20171;-73
2022/08/28 01:43:44;;;;;;;6.03;2.07;;;15.80;99.90;;;;;;5097470;28;20307;-72
2022/08/28 01:46:11;;;;;;;1.70;1.50;;;15.60;99.90;;;;;;5096618;28;20194;-74
2022/08/28 01:48:40;;;;;;;7.70;2.07;;;15.80;99.90;;;;;;5094651;28;20765;-71
2022/08/28 01:51:07;;;;;;;3.33;2.30;;;15.90;99.90;;;;;;5096588;28;20167;-74
2022/08/28 01:53:33;;;;;;;3.70;2.83;;;15.50;99.90;;;;;;5095929;28;20523;-71
2022/08/28 01:56:06;;;;;;;3.60;1.20;;;15.50;99.90;;;;;;5096223;28;20170;-71
2022/08/28 01:58:32;;;;;;;4.37;1.77;;;15.50;99.90;;;;;;5097000;28;20454;-70
2022/08/28 02:00:58;;;;;;;3.40;2.27;;;15.20;99.90;;;;;;5097136;28;20258;-77
2022/08/28 02:03:24;;;;;;;5.30;2.07;;;15.30;99.90;;;;;;5095853;28;20614;-73
2022/08/28 02:05:50;;;;;;;3.43;1.80;;;15.20;99.90;;;;;;5097032;28;20228;-72
2022/08/28 02:08:17;;;;;;;3.03;2.40;;;-17.60;99.90;;;;;;5096490;28;20190;-72
2022/08/28 02:10:43;;;;;;;8.23;3.00;;;-15.50;99.90;;;;;;5096868;28;20268;-74
2022/08/28 02:13:10;;;;;;;2.00;1.67;;;-15.40;99.90;;;;;;5096619;28;20167;-73
2022/08/28 02:15:37;;;;;;;6.23;3.37;;;-20.90;99.90;;;;;;5093693;28;20174;-74
2022/08/28 02:18:04;;;;;;;3.03;1.70;;;-20.70;99.90;;;;;;5095137;28;20202;-71
2022/08/28 02:20:32;;;;;;;5.30;1.90;;;-18.00;99.90;;;;;;5095099;28;20174;-73
2022/08/28 02:22:58;;;;;;;5.07;1.87;;;-15.80;99.90;;;;;;5094216;28;20472;-73
2022/08/28 02:25:26;;;;;;;2.33;2.13;;;-16.60;99.90;;;;;;5095760;28;20175;-71
2022/08/28 02:27:52;;;;;;;4.67;2.70;;;-17.00;99.90;;;;;;5095767;28;20229;-70
2022/08/28 02:30:18;;;;;;;6.30;2.03;;;17.50;99.90;;;;;;5096472;28;20604;-71
2022/08/28 02:32:45;;;;;;;4.53;3.00;;;18.40;99.90;;;;;;5096828;28;20173;-71
2022/08/28 02:35:13;;;;;;;5.50;2.30;;;18.50;99.90;;;;;;5096448;28;20176;-73
2022/08/28 02:37:43;;;;;;;3.27;2.90;;;18.40;99.90;;;;;;5096347;28;20167;-70
2022/08/28 02:40:10;;;;;;;2.43;1.73;;;18.40;99.90;;;;;;5096541;28;20257;-71
2022/08/28 02:42:36;;;;;;;5.33;2.77;;;18.40;99.90;;;;;;5096618;28;20224;-71
2022/08/28 02:45:02;;;;;;;3.50;2.23;;;18.40;99.90;;;;;;5096427;28;20538;-71
2022/08/28 02:47:28;;;;;;;5.07;2.13;;;18.40;99.90;;;;;;5096448;28;20194;-72
2022/08/28 02:49:54;;;;;;;4.53;1.80;;;18.30;99.90;;;;;;5096338;28;20533;-71
2022/08/28 02:52:21;;;;;;;4.63;2.37;;;18.20;99.90;;;;;;5095995;28;20163;-70
2022/08/28 02:54:47;;;;;;;3.83;1.70;;;18.20;99.90;;;;;;5096444;28;20178;-70
2022/08/28 02:57:13;;;;;;;6.97;2.93;;;18.20;99.90;;;;;;5096597;28;20517;-70
2022/08/28 02:59:38;;;;;;;6.63;2.80;;;18.10;99.90;;;;;;5096243;28;20217;-70
2022/08/28 03:02:06;;;;;;;7.70;4.03;;;18.10;99.90;;;;;;5095239;28;20202;-73
2022/08/28 03:04:34;;;;;;;7.63;2.57;;;18.10;99.90;;;;;;5096011;28;20566;-70
2022/08/28 03:07:00;;;;;;;5.27;3.90;;;18.10;99.90;;;;;;5095929;28;20194;-70
2022/08/28 03:09:26;;;;;;;3.50;2.67;;;18.00;99.90;;;;;;5095277;28;20221;-71
2022/08/28 03:11:53;;;;;;;7.83;2.40;;;18.00;99.90;;;;;;5096191;28;20159;-73
2022/08/28 03:14:20;;;;;;;2.97;2.40;;;18.00;99.90;;;;;;5095889;28;20516;-70
2022/08/28 03:16:46;;;;;;;4.00;2.50;;;18.10;99.90;;;;;;5096052;28;20175;-72
2022/08/28 03:19:12;;;;;;;4.43;2.43;;;18.00;99.90;;;;;;5096164;28;20166;-75
2022/08/28 03:21:38;;;;;;;3.47;3.13;;;18.00;99.90;;;;;;5095577;28;20251;-71
2022/08/28 03:24:04;;;;;;;6.23;2.63;;;17.90;99.90;;;;;;5095017;28;20310;-74
2022/08/28 03:26:29;;;;;;;3.40;2.40;;;17.80;99.90;;;;;;5095752;28;20624;-73
2022/08/28 03:28:56;;;;;;;6.07;2.63;;;17.70;99.90;;;;;;5095770;28;20508;-72
2022/08/28 03:31:24;;;;;;;6.20;2.60;;;17.70;99.90;;;;;;5095934;28;20163;-73
2022/08/28 03:33:51;;;;;;;6.60;3.90;;;17.70;99.90;;;;;;5095513;28;20196;-71
2022/08/28 03:36:21;;;;;;;8.77;3.63;;;17.50;99.90;;;;;;5095714;28;20577;-71
2022/08/28 03:38:47;;;;;;;9.53;3.40;;;17.50;99.90;;;;;;5095715;28;20182;-73
2022/08/28 03:41:16;;;;;;;7.07;3.20;;;17.50;99.90;;;;;;5095714;28;20251;-70
2022/08/28 03:43:43;;;;;;;5.73;3.93;;;17.40;99.90;;;;;;5095737;28;20171;-72
2022/08/28 03:46:13;;;;;;;7.00;3.07;;;17.30;99.90;;;;;;5095814;28;20584;-72
2022/08/28 03:48:39;;;;;;;7.23;3.07;;;17.20;99.90;;;;;;5099465;28;20517;-71
2022/08/28 03:51:08;;;;;;;5.13;3.20;;;17.40;99.90;;;;;;5099879;28;20512;-70
2022/08/28 03:53:34;;;;;;;7.13;3.47;;;17.30;99.90;;;;;;5099804;28;20158;-72
2022/08/28 03:56:01;;;;;;;5.20;3.70;;;17.20;99.90;;;;;;5099705;28;20224;-71
2022/08/28 03:58:27;;;;;;;7.83;3.87;;;17.20;99.90;;;;;;5099494;28;20175;-74
2022/08/28 04:00:54;;;;;;;6.53;3.83;;;17.10;99.90;;;;;;5099302;28;20225;-70
2022/08/28 04:03:20;;;;;;;7.57;3.73;;;17.20;99.90;;;;;;5099314;28;20484;-73
2022/08/28 04:05:46;;;;;;;9.53;5.20;;;17.10;99.90;;;;;;5099614;28;20167;-71
2022/08/28 04:08:14;;;;;;;6.17;3.67;;;17.10;99.90;;;;;;5099379;28;20289;-71
2022/08/28 04:10:41;;;;;;;8.27;4.17;;;17.00;99.90;;;;;;5099281;28;20167;-71
2022/08/28 04:13:07;;;;;;;12.33;4.00;;;16.90;99.90;;;;;;5099366;28;20227;-73
2022/08/28 04:15:33;;;;;;;7.23;5.00;;;16.90;99.90;;;;;;5098108;28;20570;-72
2022/08/28 04:17:59;;;;;;;8.70;4.07;;;16.90;99.90;;;;;;5098857;28;20266;-73
2022/08/28 04:20:26;;;;;;;6.97;4.23;;;16.80;99.90;;;;;;5099383;28;20219;-72
2022/08/28 04:22:52;;;;;;;11.13;4.13;;;16.60;99.90;;;;;;5099338;28;20183;-74
2022/08/28 04:25:19;;;;;;;7.57;4.70;;;16.40;99.90;;;;;;5099139;28;20202;-73
2022/08/28 04:27:44;;;;;;;6.77;4.13;;;16.30;99.90;;;;;;5098868;28;20202;-71
2022/08/28 04:30:11;;;;;;;7.10;3.70;;;16.20;99.90;;;;;;5099137;28;20171;-71
2022/08/28 04:32:37;;;;;;;8.33;3.30;;;16.10;99.90;;;;;;5098755;28;20184;-72
2022/08/28 04:35:05;;;;;;;4.33;3.37;;;16.00;99.90;;;;;;5099057;28;20178;-73
2022/08/28 04:37:31;;;;;;;9.40;4.27;;;16.00;99.90;;;;;;5098825;28;20253;-72
2022/08/28 04:39:57;;;;;;;5.10;3.67;;;15.90;99.90;;;;;;5098916;28;20214;-72
2022/08/28 04:42:23;;;;;;;5.60;4.30;;;15.70;99.90;;;;;;5098758;28;20479;-71
2022/08/28 04:44:49;;;;;;;4.57;4.00;;;15.60;99.90;;;;;;5097662;28;20261;-71
2022/08/28 04:47:15;;;;;;;6.53;3.53;;;15.60;99.90;;;;;;5098283;28;20205;-71
2022/08/28 04:49:41;;;;;;;8.43;4.07;;;15.50;99.90;;;;;;5097628;28;20222;-71
2022/08/28 04:52:07;;;;;;;8.23;4.27;;;15.20;99.90;;;;;;5098583;28;20175;-71
2022/08/28 04:54:33;;;;;;;6.27;3.13;;;14.90;99.90;;;;;;5098734;28;20196;-71
2022/08/28 04:57:00;;;;;;;9.30;4.53;;;14.40;99.90;;;;;;5098488;28;20253;-71
2022/08/28 04:59:26;;;;;;;12.23;4.53;;;14.10;99.90;;;;;;5098376;28;20194;-70
2022/08/28 05:01:53;;;;;;;6.90;4.17;;;13.90;99.90;;;;;;5098055;28;20179;-75
2022/08/28 05:04:19;;;;;;;6.57;4.17;;;13.90;99.90;;;;;;5098429;28;20175;-72
2022/08/28 05:06:46;;;;;;;8.30;3.73;;;13.90;99.90;;;;;;5098285;28;20167;-70
2022/08/28 05:09:14;;;;;;;16.37;4.33;;;13.80;99.90;;;;;;5098325;28;20640;-71
2022/08/28 05:11:39;;;;;;;9.70;4.30;;;13.70;99.90;;;;;;5098363;28;20170;-70
2022/08/28 05:14:08;;;;;;;10.23;4.53;;;14.00;99.90;;;;;;5098015;28;20170;-73
2022/08/28 05:16:46;;;;;;;11.03;4.37;;;14.70;99.90;;;;;;5098199;28;20182;-71
2022/08/28 05:19:13;;;;;;;11.73;3.80;;;14.50;99.90;;;;;;5098146;28;20174;-73
2022/08/28 05:21:39;;;;;;;18.03;4.73;;;14.60;99.90;;;;;;5098084;28;20177;-73
2022/08/28 05:24:05;;;;;;;12.87;4.37;;;14.60;99.90;;;;;;5097980;28;20506;-70
2022/08/28 05:26:32;;;;;;;5.87;3.97;;;14.70;99.90;;;;;;5097742;28;20171;-71
2022/08/28 05:28:58;;;;;;;4.93;3.37;;;14.70;99.90;;;;;;5097667;28;20649;-71
2022/08/28 05:31:26;;;;;;;11.30;3.93;;;14.60;99.90;;;;;;5097742;28;20441;-71
2022/08/28 05:33:53;;;;;;;14.37;4.77;;;14.70;99.90;;;;;;5097652;28;20166;-73
2022/08/28 05:36:21;;;;;;;7.53;3.13;;;14.70;99.90;;;;;;5097782;28;20195;-72
2022/08/28 05:38:48;;;;;;;8.13;4.43;;;14.70;99.90;;;;;;5096585;28;20177;-72
2022/08/28 05:41:19;;;;;;;10.00;3.73;;;14.70;99.90;;;;;;5097790;28;20249;-72
2022/08/28 05:43:45;;;;;;;8.50;4.40;;;14.70;99.90;;;;;;5097445;28;20492;-71
2022/08/28 05:46:11;;;;;;;13.80;4.53;;;14.60;99.90;;;;;;5097233;28;20170;-71
2022/08/28 05:48:38;;;;;;;7.93;3.10;;;14.70;99.90;;;;;;5097376;28;20497;-71
2022/08/28 05:51:09;;;;;;;4.97;3.93;;;14.50;99.90;;;;;;5097590;28;20171;-72
2022/08/28 05:53:40;;;;;;;8.30;3.40;;;14.50;99.90;;;;;;5096298;28;20178;-71
2022/08/28 05:56:13;;;;;;;7.50;4.13;;;14.50;99.90;;;;;;5097463;28;20170;-70
2022/08/28 05:58:39;;;;;;;5.93;3.33;;;14.50;99.90;;;;;;5097093;28;20187;-72
2022/08/28 06:01:06;;;;;;;8.10;3.97;;;14.40;99.90;;;;;;5097177;28;20178;-71
2022/08/28 06:03:33;;;;;;;7.73;3.50;;;14.40;99.90;;;;;;5096122;28;20633;-71
2022/08/28 06:05:59;;;;;;;5.60;2.93;;;14.40;99.90;;;;;;5097166;28;20485;-72
2022/08/28 06:08:26;;;;;;;4.73;3.43;;;14.30;99.90;;;;;;5096528;28;20202;-71
2022/08/28 06:10:53;;;;;;;9.93;4.77;;;14.40;99.90;;;;;;5097099;28;20198;-71
2022/08/28 06:13:19;;;;;;;10.80;4.30;;;14.30;99.90;;;;;;5095733;28;20163;-71
2022/08/28 06:15:45;;;;;;;11.60;4.43;;;14.00;99.90;;;;;;5097104;28;20175;-72
2022/08/28 06:18:12;;;;;;;14.80;4.07;;;13.90;99.90;;;;;;5097020;28;20174;-71
2022/08/28 06:20:42;;;;;;;8.60;3.20;;;13.60;99.90;;;;;;5096907;28;20174;-72
2022/08/28 06:23:09;;;;;;;4.37;3.20;;;13.10;99.90;;;;;;5097088;28;20231;-70
2022/08/28 06:25:47;;;;;;;8.60;3.67;;;13.10;99.90;;;;;;5096844;28;20175;-70
2022/08/28 06:28:16;;;;;;;12.80;4.27;;;13.10;99.90;;;;;;5095336;28;20206;-72
2022/08/28 06:30:42;;;;;;;8.93;3.77;;;13.20;99.90;;;;;;5096696;28;20290;-72
2022/08/28 06:33:09;;;;;;;6.13;3.40;;;13.20;99.90;;;;;;5095883;28;20202;-70
2022/08/28 06:35:47;;;;;;;10.57;3.27;;;13.20;99.90;;;;;;5096839;28;20224;-70
2022/08/28 06:38:13;;;;;;;9.90;4.33;;;13.30;99.90;;;;;;5095691;28;20488;-74
2022/08/28 06:40:45;;;;;;;8.13;2.77;;;13.10;99.90;;;;;;5096756;28;20558;-72
2022/08/28 06:43:12;;;;;;;8.00;4.20;;;12.40;99.90;;;;;;5095350;28;20227;-72
2022/08/28 06:45:41;;;;;;;5.83;3.27;;;17.10;99.90;;;;;;5096530;28;20174;-71
2022/08/28 06:48:09;;;;;;;6.20;2.93;;;17.00;99.90;;;;;;5096542;28;20198;-71
2022/08/28 06:50:40;;;;;;;12.63;3.10;;;17.00;99.90;;;;;;5096587;28;20610;-70
2022/08/28 06:53:10;;;;;;;11.20;3.23;;;17.10;99.90;;;;;;5096420;28;20171;-72
2022/08/28 06:55:37;;;;;;;4.73;3.13;;;17.10;99.90;;;;;;5096360;28;20167;-70
2022/08/28 06:58:04;;;;;;;9.43;3.00;;;17.00;99.90;;;;;;5095939;28;20179;-71
2022/08/28 07:00:31;;;;;;;13.03;4.17;;;17.00;99.90;;;;;;5096102;28;20186;-71
2022/08/28 07:02:57;;;;;;;7.20;3.53;;;16.90;99.90;;;;;;5096266;28;20175;-70
2022/08/28 07:05:23;;;;;;;7.30;2.70;;;16.90;99.90;;;;;;5096199;28;20232;-70
2022/08/28 07:07:50;;;;;;;4.63;2.50;;;16.90;99.90;;;;;;5096057;28;20201;-73
2022/08/28 07:10:16;;;;;;;12.77;3.00;;;17.00;99.90;;;;;;5094999;28;20175;-70
2022/08/28 07:12:42;;;;;;;10.63;3.17;;;17.00;99.90;;;;;;5095998;28;20160;-71
2022/08/28 07:15:08;;;;;;;8.33;2.47;;;17.10;99.90;;;;;;5095918;28;20547;-72
2022/08/28 07:17:34;;;;;;;8.43;2.90;;;17.30;99.90;;;;;;5096223;28;20257;-73
2022/08/28 07:20:02;;;;;;;7.30;3.87;;;17.30;99.90;;;;;;5095545;28;20254;-70
2022/08/28 07:22:28;;;;;;;9.40;4.03;;;17.40;99.90;;;;;;5095435;28;20166;-72
2022/08/28 07:24:55;;;;;;;8.77;3.50;;;17.40;99.90;;;;;;5095878;28;20162;-71
2022/08/28 07:27:23;;;;;;;11.00;3.27;;;17.50;99.90;;;;;;5095615;28;20171;-71
2022/08/28 07:29:49;;;;;;;5.50;3.60;;;17.50;99.90;;;;;;5094699;28;20453;-72
2022/08/28 07:32:16;;;;;;;6.60;3.27;;;17.60;99.90;;;;;;5095863;28;20562;-73
2022/08/28 07:34:42;;;;;;;12.03;3.30;;;17.70;99.90;;;;;;5095849;28;20691;-73
2022/08/28 07:37:08;;;;;;;17.97;4.57;;;17.60;99.90;;;;;;5095758;28;20175;-75
2022/08/28 07:39:34;;;;;;;7.07;3.07;;;17.70;99.90;;;;;;5095710;28;20298;-73
2022/08/28 07:42:00;;;;;;;6.70;2.83;;;17.90;99.90;;;;;;5094088;28;20224;-74
2022/08/28 07:47:10;;;;;;;9.10;2.47;;;17.80;99.90;;;;;;5095503;28;20251;-70
2022/08/28 07:49:37;;;;;;;8.47;2.73;;;17.90;99.90;;;;;;5094516;28;20580;-72
2022/08/28 07:52:05;;;;;;;4.50;2.47;;;18.00;99.90;;;;;;5095361;28;20623;-70
2022/08/28 07:54:31;;;;;;;10.07;2.60;;;18.10;99.90;;;;;;5095438;28;20171;-70
2022/08/28 07:56:57;;;;;;;4.30;2.20;;;18.10;99.90;;;;;;5094057;28;20550;-71
2022/08/28 07:59:23;;;;;;;7.20;3.00;;;18.10;99.90;;;;;;5095151;28;20279;-71
2022/08/28 08:01:50;;;;;;;4.83;2.17;;;18.20;99.90;;;;;;5095329;28;20183;-72
2022/08/28 08:04:18;;;;;;;5.37;3.10;;;18.20;99.90;;;;;;5095454;28;20174;-71
2022/08/28 08:06:45;;;;;;;3.80;2.33;;;18.40;99.90;;;;;;5095347;28;20245;-71
2022/08/28 08:09:14;;;;;;;6.43;2.23;;;18.40;99.90;;;;;;5095289;28;20186;-71
2022/08/28 08:11:41;;;;;;;5.13;2.57;;;18.40;99.90;;;;;;5095374;28;20247;-71
2022/08/28 08:14:07;;;;;;;8.37;2.93;;;18.40;99.90;;;;;;5095302;28;20505;-72
2022/08/28 08:16:37;;;;;;;12.40;3.23;;;18.40;99.90;;;;;;5095333;28;20167;-75
2022/08/28 08:19:03;;;;;;;5.07;3.20;;;18.40;99.90;;;;;;5095309;28;20175;-73
2022/08/28 08:21:29;;;;;;;7.03;3.00;;;18.50;99.90;;;;;;5095348;28;20182;-71
2022/08/28 08:23:55;;;;;;;5.70;2.30;;;18.50;99.90;;;;;;5095054;28;20235;-76
2022/08/28 08:26:24;;;;;;;8.57;3.10;;;18.40;99.90;;;;;;5095200;28;20241;-71
2022/08/28 08:28:50;;;;;;;7.27;2.83;;;18.40;99.90;;;;;;5095016;28;20207;-71
2022/08/28 08:31:18;;;;;;;4.10;1.73;;;18.60;99.90;;;;;;5094078;28;20182;-71
2022/08/28 08:33:46;;;;;;;10.80;2.57;;;18.60;99.90;;;;;;5098785;28;20253;-69
2022/08/28 08:36:14;;;;;;;5.63;3.07;;;18.70;99.90;;;;;;5098740;28;20167;-73
2022/08/28 08:38:40;;;;;;;6.33;3.17;;;18.50;99.90;;;;;;5098567;28;20258;-72
2022/08/28 08:41:34;;;;;;;3.30;2.23;;;18.50;99.90;;;;;;5098814;28;20159;-72
2022/08/28 08:44:31;;;;;;;8.10;2.13;;;18.60;99.90;;;;;;5097757;28;20186;-71
2022/08/28 08:47:15;;;;;;;6.60;3.43;;;18.70;99.90;;;;;;5098621;28;20197;-72
2022/08/28 08:50:04;;;;;;;4.37;1.70;;;18.70;99.90;;;;;;5098552;28;20609;-71
2022/08/28 08:52:45;;;;;;;8.93;2.40;;;18.70;99.90;;;;;;5098395;28;20212;-72
2022/08/28 08:55:30;;;;;;;4.87;2.50;;;18.70;99.90;;;;;;5098460;28;20220;-74
2022/08/28 08:58:14;;;;;;;7.50;2.90;;;18.70;99.90;;;;;;5097219;28;20302;-71
2022/08/28 09:00:56;;;;;;;8.27;2.73;;;18.70;99.90;;;;;;5098377;28;20529;-71
2022/08/28 09:03:42;;;;;;;3.43;1.80;;;18.30;99.90;;;;;;5098103;28;20178;-73
2022/08/28 09:06:36;;;;;;;4.20;2.00;;;17.90;99.90;;;;;;5098229;28;20601;-71
2022/08/28 09:09:12;;;;;;;5.60;2.47;;;16.40;99.90;;;;;;5097600;28;20577;-71
2022/08/28 09:11:53;;;;;;;3.53;2.03;;;16.40;99.90;;;;;;5098090;28;20163;-72
2022/08/28 09:14:41;;;;;;;9.43;4.23;;;15.80;99.90;;;;;;5098053;28;20254;-72
2022/08/28 09:17:09;;;;;;;4.73;2.03;;;19.80;99.90;;;;;;5097995;28;20174;-71
2022/08/28 09:19:35;;;;;;;5.40;2.23;;;19.90;99.90;;;;;;5098221;28;20208;-73
2022/08/28 09:22:00;;;;;;;5.93;2.73;;;19.90;99.90;;;;;;5097744;28;20245;-70
2022/08/28 09:24:34;;;;;;;7.10;3.23;;;19.90;99.90;;;;;;5097903;28;20554;-73
2022/08/28 09:27:06;;;;;;;5.53;2.90;;;20.00;99.90;;;;;;5097920;28;20159;-78
2022/08/28 09:29:45;;;;;;;3.40;2.10;;;20.10;99.90;;;;;;5097840;28;20747;-71
2022/08/28 09:32:25;;;;;;;6.53;2.17;;;20.10;99.90;;;;;;5097756;28;20171;-74
2022/08/28 09:35:02;;;;;;;6.83;2.60;;;20.20;99.90;;;;;;5097707;28;20174;-70
2022/08/28 09:37:32;;;;;;;3.80;1.80;;;20.20;99.90;;;;;;5097380;28;20211;-71
2022/08/28 09:40:19;;;;;;;3.70;1.93;;;20.20;99.90;;;;;;5097733;28;20175;-71
2022/08/28 09:43:25;;;;;;;4.03;2.40;;;20.30;99.90;;;;;;5096491;28;20167;-72
2022/08/28 09:46:22;;;;;;;3.17;1.97;;;20.30;99.90;;;;;;5097526;28;20216;-72
2022/08/28 09:48:51;;;;;;;7.47;3.30;;;20.20;99.90;;;;;;5095423;28;20218;-73
2022/08/28 09:51:20;;;;;;;16.50;2.77;;;20.00;99.90;;;;;;5096089;28;20207;-73
2022/08/28 09:53:52;;;;;;;6.90;2.00;;;19.20;99.90;;;;;;5097295;28;20167;-70
2022/08/28 09:56:26;;;;;;;4.37;2.57;;;20.70;99.90;;;;;;5097522;28;20178;-75
2022/08/28 09:58:58;;;;;;;4.97;1.80;;;20.90;99.90;;;;;;5097301;28;20581;-75
2022/08/28 10:01:47;;;;;;;3.83;1.70;;;20.80;99.90;;;;;;5097180;28;20178;-72
2022/08/28 10:04:32;;;;;;;4.67;1.87;;;20.90;99.90;;;;;;5096984;28;20249;-74
2022/08/28 10:07:03;;;;;;;7.33;1.77;;;20.90;99.90;;;;;;5096851;28;20570;-72
2022/08/28 10:09:39;;;;;;;6.53;3.03;;;21.00;99.90;;;;;;5096984;28;20273;-72
2022/08/28 10:12:14;;;;;;;8.87;2.80;;;21.00;99.90;;;;;;5095960;28;20201;-73
2022/08/28 10:15:19;;;;;;;3.20;2.23;;;21.20;99.90;;;;;;5096918;28;20174;-74
2022/08/28 10:17:53;;;;;;;5.83;1.83;;;21.20;99.90;;;;;;5096810;28;20163;-74
2022/08/28 10:20:30;;;;;;;6.53;1.87;;;21.30;99.90;;;;;;5096499;28;20166;-74
2022/08/28 10:23:13;;;;;;;4.67;2.10;;;21.30;99.90;;;;;;5095739;28;20629;-72
2022/08/28 10:26:12;;;;;;;5.20;2.40;;;21.40;99.90;;;;;;5096769;28;20158;-72
2022/08/28 10:28:38;;;;;;;1.87;1.23;;;21.30;99.90;;;;;;5095417;28;20210;-70
2022/08/28 10:31:35;;;;;;;4.00;1.33;;;21.20;99.70;;;;;;5096540;28;20593;-72
2022/08/28 10:34:27;;;;;;;6.17;2.00;;;21.20;99.10;;;;;;5094136;28;20186;-73
2022/08/28 10:37:20;;;;;;;6.67;1.70;;;22.00;99.10;;;;;;5093429;28;20174;-73
2022/08/28 10:39:56;;;;;;;6.33;2.40;;;22.10;98.20;;;;;;5096521;28;20233;-71
2022/08/28 10:42:50;;;;;;;4.27;2.17;;;22.10;98.80;;;;;;5096579;28;20186;-70
2022/08/28 10:45:21;;;;;;;4.73;2.03;;;22.00;99.40;;;;;;5096337;28;20521;-72
2022/08/28 10:47:59;;;;;;;4.53;1.53;;;22.40;98.60;;;;;;5095557;28;20194;-75
2022/08/28 10:50:31;;;;;;;3.67;2.10;;;22.60;98.50;;;;;;5095834;28;20178;-72
2022/08/28 10:53:02;;;;;;;7.87;2.93;;;22.70;98.70;;;;;;5096299;28;20166;-76
2022/08/28 10:56:01;;;;;;;3.63;2.27;;;22.80;98.50;;;;;;5096172;28;20210;-73
2022/08/28 10:58:29;;;;;;;6.30;2.50;;;22.70;97.60;;;;;;5096063;28;20669;-74
2022/08/28 11:01:04;;;;;;;5.57;1.80;;;22.50;97.30;;;;;;5096147;28;20174;-74
2022/08/28 11:03:39;;;;;;;2.93;2.20;;;22.50;97.20;;;;;;5094834;28;20174;-73
2022/08/28 11:06:20;;;;;;;3.77;2.47;;;22.60;97.20;;;;;;5095960;28;20592;-77
2022/08/28 11:08:53;;;;;;;4.07;2.67;;;22.50;96.90;;;;;;5096082;28;20221;-72
2022/08/28 11:11:44;;;;;;;2.80;1.30;;;22.60;96.70;;;;;;5095875;28;20167;-73
2022/08/28 11:14:24;;;;;;;2.03;1.67;;;22.30;95.70;;;;;;5095829;28;20262;-72
2022/08/28 11:16:51;;;;;;;4.37;2.13;;;21.70;96.20;;;;;;5096000;28;20163;-74
2022/08/28 11:19:54;;;;;;;4.20;1.90;;;21.00;95.70;;;;;;5095860;28;20190;-74
2022/08/28 11:22:46;;;;;;;9.80;2.20;;;23.20;96.40;;;;;;5095818;28;20212;-71
2022/08/28 11:25:14;;;;;;;4.10;1.60;;;23.30;95.60;;;;;;5093091;28;20183;-72
2022/08/28 11:28:18;;;;;;;3.30;2.27;;;23.40;95.70;;;;;;5095670;28;20586;-72
2022/08/28 11:31:08;;;;;;;4.03;2.10;;;22.20;94.50;;;;;;5095718;28;20472;-73
2022/08/28 11:33:37;;;;;;;3.23;1.30;;;23.70;94.80;;;;;;5095356;28;20171;-72
2022/08/28 11:36:08;;;;;;;3.60;2.20;;;23.90;94.50;;;;;;5095757;28;20190;-72
2022/08/28 11:38:40;;;;;;;2.93;1.30;;;23.70;94.40;;;;;;5095807;28;20227;-71
2022/08/28 11:41:11;;;;;;;4.07;2.33;;;24.30;94.20;;;;;;5095526;28;20166;-72
2022/08/28 11:43:39;;;;;;;3.93;2.20;;;24.50;93.30;;;;;;5095496;28;20167;-74
2022/08/28 11:46:09;;;;;;;2.97;1.27;;;23.90;93.00;;;;;;5095668;28;20290;-75
2022/08/28 11:48:35;;;;;;;3.87;1.37;;;-40.00;56.20;;;;;;5095352;28;20628;-72
2022/08/28 11:51:26;;;;;;;7.17;1.97;;;-40.00;55.90;;;;;;5095583;28;20163;-73
2022/08/28 11:54:19;;;;;;;5.50;1.97;;;-40.00;53.60;;;;;;5095634;28;20245;-72
2022/08/28 11:57:10;;;;;;;4.40;1.67;;;-40.00;49.80;;;;;;5095377;28;20163;-72
2022/08/28 12:00:09;;;;;;;5.73;1.93;;;-40.00;49.40;;;;;;5095615;28;20236;-79
2022/08/28 12:02:38;;;;;;;4.73;1.77;;;-40.00;47.20;;;;;;5095131;28;20220;-72
2022/08/28 12:05:29;;;;;;;4.60;2.30;;;-40.00;47.70;;;;;;5095599;28;20171;-73
2022/08/28 12:07:54;;;;;;;4.57;1.43;;;-40.00;47.00;;;;;;5093380;28;20211;-74
2022/08/28 12:10:24;;;;;;;3.83;1.93;;;-40.00;46.50;;;;;;5099430;28;20167;-76
2022/08/28 12:12:56;;;;;;;6.17;2.60;;;-40.00;45.20;;;;;;5099102;28;20201;-77
2022/08/28 12:15:28;;;;;;;3.20;2.45;;;-40.00;43.70;;;;;;5098616;28;20530;-73
2022/08/28 12:17:57;;;;;;;2.97;1.95;;;-40.00;42.80;;;;;;5100144;28;20178;-73
2022/08/28 12:20:33;;;;;;;16.05;11.18;;;-40.00;42.60;;;;;;5099512;28;20167;-79
2022/08/28 12:23:02;;;;;;;6.38;3.35;;;-40.00;41.10;;;;;;5099113;28;20220;-73
2022/08/28 12:25:42;;;;;;;3.35;2.22;;;-40.00;41.10;;;;;;5099152;28;20229;-75
2022/08/28 12:28:36;;;;;;;2.78;2.58;;;-40.00;40.70;;;;;;5098679;28;20239;-72
2022/08/28 12:31:04;;;;;;;1.52;1.42;;;-40.00;39.40;;;;;;5098888;28;20163;-76
2022/08/28 12:33:54;;;;;;;1.50;1.35;;;-40.00;38.40;;;;;;5098926;28;20163;-75
2022/08/28 12:36:25;;;;;;;5.43;2.22;;;-40.00;39.40;;;;;;5095696;28;20170;-72
2022/08/28 12:38:52;;;;;;;6.07;1.90;;;-40.00;38.20;;;;;;5098872;28;20198;-72
2022/08/28 12:41:21;;;;;;;5.90;1.73;;;-40.00;35.90;;;;;;5098803;28;20171;-75
2022/08/28 12:43:50;;;;;;;3.95;1.90;;;-40.00;36.80;;;;;;5098793;28;20585;-76
2022/08/28 12:46:20;;;;;;;1.77;1.67;;;-40.00;34.80;;;;;;5098369;28;20159;-78
2022/08/28 12:48:58;;;;;;;2.80;1.70;;;-40.00;35.50;;;;;;5098535;28;20261;-76
2022/08/28 12:51:27;;;;;;;2.50;1.42;;;-40.00;34.60;;;;;;5097618;28;20639;-73
2022/08/28 12:54:02;;;;;;;6.70;2.03;;;-40.00;32.40;;;;;;5098472;28;20171;-74
2022/08/28 12:56:34;;;;;;;2.50;1.63;;;-40.00;34.80;;;;;;5098537;28;20166;-76
2022/08/28 12:59:45;;;;;;;3.30;1.85;;;-40.00;31.80;;;;;;5098134;28;20196;-77
2022/08/28 13:02:24;;;;;;;2.53;1.52;;;-40.00;31.90;;;;;;5096980;28;20194;-73
2022/08/28 13:04:56;;;;;;;2.95;1.48;;;-40.00;34.90;;;;;;5098281;28;20170;-74
2022/08/28 13:07:46;;;;;;;4.65;1.98;;;-40.00;32.30;;;;;;5098191;28;20258;-73
2022/08/28 13:10:39;;;;;;;1.50;1.40;;;-25.80;38.10;;;;;;5098141;28;20171;-78
2022/08/28 13:13:17;;;;;;;1.95;1.70;;;-31.20;34.40;;;;;;5098148;28;20167;-73